Time;durP1;ratioP1;P1;durP2;ratioP2;P2;SDS_P1;SDS_P2;PMS_P1;PMS_P2;Temp;Humidity;BMP_temperature;BMP_pressure;BME280_temperature;BME280_humidity;BME280_pressure;Samples;Min_cycle;Max_cycle;Signal;HPM_P1;HPM_P2
2022/04/09 00:01:38;;;;;;;;;;;12.50;99.90;;;;;;5089503;28;19978;-52
2022/04/09 00:04:05;;;;;;;;;;;12.80;99.90;;;;;;5086753;28;19925;-52
2022/04/09 00:06:33;;;;;;;;;;;13.00;99.90;;;;;;5083722;28;20289;-52
2022/04/09 00:09:00;;;;;;;;;;;13.10;99.90;;;;;;5087199;28;19924;-52
2022/04/09 00:11:30;;;;;;;;;;;13.00;99.90;;;;;;5083413;28;19924;-52
2022/04/09 00:13:58;;;;;;;;;;;13.00;99.90;;;;;;5079156;28;19956;-52
2022/04/09 00:16:25;;;;;;;;;;;13.10;99.90;;;;;;5088982;28;19924;-52
2022/04/09 00:18:52;;;;;;;;;;;12.90;99.90;;;;;;5083791;28;19935;-52
2022/04/09 00:21:19;;;;;;;;;;;12.60;99.90;;;;;;5085205;28;19924;-52
2022/04/09 00:23:46;;;;;;;;;;;12.50;99.90;;;;;;5090321;28;20246;-52
2022/04/09 00:26:13;;;;;;;;;;;12.30;99.90;;;;;;5083373;28;19924;-52
2022/04/09 00:28:39;;;;;;;;;;;12.30;99.90;;;;;;5108866;22;19925;-57
2022/04/09 00:31:08;;;;;;;;;;;12.30;99.90;;;;;;5082530;28;19940;-58
2022/04/09 00:33:34;;;;;;;;;;;12.20;99.90;;;;;;5079187;28;19928;-58
2022/04/09 00:36:01;;;;;;;;;;;12.00;99.90;;;;;;5088407;28;19924;-58
2022/04/09 00:38:29;;;;;;;;;;;11.90;99.90;;;;;;5087369;28;19978;-58
2022/04/09 00:40:56;;;;;;;;;;;11.80;99.90;;;;;;5089394;28;19994;-58
2022/04/09 00:43:23;;;;;;;;;;;11.70;99.90;;;;;;5093136;28;19999;-58
2022/04/09 00:45:49;;;;;;;;;;;11.50;99.90;;;;;;5092492;28;19928;-58
2022/04/09 00:48:20;;;;;;;;;;;11.20;99.90;;;;;;5088601;28;20001;-58
2022/04/09 00:50:46;;;;;;;;;;;10.90;99.90;;;;;;5091528;28;19939;-58
2022/04/09 00:53:14;;;;;;;;;;;10.60;99.90;;;;;;5093256;28;19924;-58
2022/04/09 00:58:26;;;;;;;;;;;10.30;99.90;;;;;;5091040;28;19931;-58
2022/04/09 01:00:53;;;;;;;;;;;10.20;99.90;;;;;;5099408;28;19983;-59
2022/04/09 01:03:21;;;;;;;;;;;10.10;99.90;;;;;;5094242;28;20052;-58
2022/04/09 01:05:49;;;;;;;;;;;9.90;99.90;;;;;;5091131;28;19932;-59
2022/04/09 01:08:16;;;;;;;;;;;10.00;99.90;;;;;;5085550;28;19931;-58
2022/04/09 01:10:45;;;;;;;;;;;10.00;99.90;;;;;;5093442;28;19970;-58
2022/04/09 01:13:12;;;;;;;;;;;9.90;99.90;;;;;;5089452;28;20360;-58
2022/04/09 01:15:39;;;;;;;;;;;9.90;99.90;;;;;;5091912;28;19928;-57
2022/04/09 01:18:05;;;;;;;;;;;9.90;99.90;;;;;;5087326;28;20351;-57
2022/04/09 01:20:34;;;;;;;;;;;10.00;99.90;;;;;;5092759;28;19970;-57
2022/04/09 01:23:02;;;;;;;;;;;10.20;99.90;;;;;;5090135;28;19924;-58
2022/04/09 01:25:28;;;;;;;;;;;10.30;99.90;;;;;;5092646;28;19927;-57
2022/04/09 01:27:56;;;;;;;;;;;10.40;99.90;;;;;;5088868;28;19924;-57
2022/04/09 01:30:22;;;;;;;;;;;10.30;99.90;;;;;;5093681;28;19928;-57
2022/04/09 01:32:49;;;;;;;;;;;10.50;99.90;;;;;;5094212;28;19977;-57
2022/04/09 01:35:16;;;;;;;;;;;10.40;99.90;;;;;;5099549;28;19957;-57
2022/04/09 01:37:43;;;;;;;;;;;10.40;99.90;;;;;;5089683;28;19925;-57
2022/04/09 01:40:12;;;;;;;;;;;10.50;99.90;;;;;;5099851;28;19928;-57
2022/04/09 01:42:39;;;;;;;;;;;10.60;99.90;;;;;;5101748;28;19924;-57
2022/04/09 01:45:06;;;;;;;;;;;9.80;99.90;;;;;;5104437;28;19950;-59
2022/04/09 01:47:34;;;;;;;;;;;9.00;99.90;;;;;;5104216;28;19924;-59
2022/04/09 01:50:00;;;;;;;;;;;8.60;99.90;;;;;;5095823;28;19924;-59
2022/04/09 01:52:27;;;;;;;;;;;8.40;99.90;;;;;;5090035;28;19970;-59
2022/04/09 01:54:54;;;;;;;;;;;8.10;99.90;;;;;;5092074;28;20397;-59
2022/04/09 01:57:22;;;;;;;;;;;8.00;99.90;;;;;;5092401;28;19928;-57
2022/04/09 01:59:49;;;;;;;;;;;7.80;99.90;;;;;;5084840;28;20313;-59
2022/04/09 02:02:16;;;;;;;;;;;7.60;99.90;;;;;;5092082;28;19998;-59
2022/04/09 02:04:43;;;;;;;;;;;7.70;99.90;;;;;;5091872;28;19924;-58
2022/04/09 02:07:09;;;;;;;;;;;7.60;99.90;;;;;;5092398;28;19986;-59
2022/04/09 02:09:36;;;;;;;;;;;7.40;99.90;;;;;;5091438;28;19928;-59
2022/04/09 02:12:03;;;;;;;;;;;6.70;99.90;;;;;;5087131;28;19928;-59
2022/04/09 02:14:31;;;;;;;;;;;6.30;99.90;;;;;;5087273;28;20381;-59
2022/04/09 02:16:58;;;;;;;;;;;6.00;99.90;;;;;;5082568;28;19978;-57
2022/04/09 02:19:24;;;;;;;;;;;6.00;99.90;;;;;;5091508;28;19969;-56
2022/04/09 02:21:51;;;;;;;;;;;5.90;99.90;;;;;;5084584;28;19924;-57
2022/04/09 02:24:18;;;;;;;;;;;5.80;99.90;;;;;;5092240;28;19942;-57
2022/04/09 02:26:45;;;;;;;;;;;5.60;99.90;;;;;;5091878;28;20301;-59
2022/04/09 02:29:12;;;;;;;;;;;5.40;99.90;;;;;;5086677;28;19928;-57
2022/04/09 02:31:40;;;;;;;;;;;5.20;99.90;;;;;;5090533;28;19924;-57
2022/04/09 02:34:08;;;;;;;;;;;5.30;99.90;;;;;;5090825;28;19923;-57
2022/04/09 02:36:36;;;;;;;;;;;5.20;99.90;;;;;;5092311;28;20010;-59
2022/04/09 02:39:03;;;;;;;;;;;5.00;99.90;;;;;;5081817;28;20443;-58
2022/04/09 02:41:29;;;;;;;;;;;5.00;99.90;;;;;;5090636;28;21226;-57
2022/04/09 02:43:57;;;;;;;;;;;4.90;99.90;;;;;;5092318;28;19924;-58
2022/04/09 02:46:24;;;;;;;;;;;4.70;99.90;;;;;;5087576;28;19925;-57
2022/04/09 02:48:53;;;;;;;;;;;4.40;99.90;;;;;;5091478;28;19928;-57
2022/04/09 02:51:19;;;;;;;;;;;4.00;99.90;;;;;;5092846;28;20373;-57
2022/04/09 02:53:46;;;;;;;;;;;3.80;99.90;;;;;;5095715;28;19954;-58
2022/04/09 02:56:13;;;;;;;;;;;3.40;99.90;;;;;;5092332;28;19928;-58
2022/04/09 02:58:40;;;;;;;;;;;3.40;99.90;;;;;;5094897;28;19996;-58
2022/04/09 03:01:07;;;;;;;;;;;3.40;99.90;;;;;;5094097;28;19944;-58
2022/04/09 03:03:33;;;;;;;;;;;3.40;99.90;;;;;;5094457;28;20018;-57
2022/04/09 03:06:02;;;;;;;;;;;3.60;99.90;;;;;;5090101;28;19989;-57
2022/04/09 03:08:29;;;;;;;;;;;3.60;99.90;;;;;;5093796;28;19938;-57
2022/04/09 03:10:56;;;;;;;;;;;3.80;99.90;;;;;;5091032;28;20428;-58
2022/04/09 03:13:22;;;;;;;;;;;3.70;99.90;;;;;;5094358;28;19996;-58
2022/04/09 03:15:49;;;;;;;;;;;3.80;99.90;;;;;;5093688;28;19924;-58
2022/04/09 03:18:16;;;;;;;;;;;3.90;99.90;;;;;;5095048;28;20472;-58
2022/04/09 03:20:43;;;;;;;;;;;4.00;99.90;;;;;;5089438;28;19939;-58
2022/04/09 03:23:12;;;;;;;;;;;4.10;99.90;;;;;;5090688;28;20397;-58
2022/04/09 03:25:38;;;;;;;;;;;4.00;99.90;;;;;;5086903;28;19924;-58
2022/04/09 03:28:05;;;;;;;;;;;4.10;99.90;;;;;;5088922;28;19963;-57
2022/04/09 03:30:32;;;;;;;;;;;4.20;99.90;;;;;;5092227;28;19924;-58
2022/04/09 03:32:59;;;;;;;;;;;4.20;99.90;;;;;;5091756;28;19989;-57
2022/04/09 03:35:26;;;;;;;;;;;4.10;99.90;;;;;;5091332;28;19977;-58
2022/04/09 03:37:53;;;;;;;;;;;4.00;99.90;;;;;;5088799;28;19932;-58
2022/04/09 03:40:22;;;;;;;;;;;4.20;99.90;;;;;;5087943;28;19977;-58
2022/04/09 03:42:48;;;;;;;;;;;4.20;99.90;;;;;;5093115;28;19928;-58
2022/04/09 03:45:15;;;;;;;;;;;4.10;99.90;;;;;;5093336;28;19985;-58
2022/04/09 03:47:42;;;;;;;;;;;3.90;99.90;;;;;;5096749;28;19978;-58
2022/04/09 03:50:09;;;;;;;;;;;3.60;99.90;;;;;;5092838;28;19985;-58
2022/04/09 03:52:36;;;;;;;;;;;3.50;99.90;;;;;;5090422;28;19932;-57
2022/04/09 03:55:03;;;;;;;;;;;3.40;99.90;;;;;;5092182;28;19928;-58
2022/04/09 03:57:31;;;;;;;;;;;3.60;99.90;;;;;;5091691;28;19973;-58
2022/04/09 03:59:58;;;;;;;;;;;3.90;99.90;;;;;;5090397;28;20037;-58
2022/04/09 04:02:25;;;;;;;;;;;4.00;99.90;;;;;;5090392;28;19924;-58
2022/04/09 04:04:51;;;;;;;;;;;3.80;99.90;;;;;;5091502;28;19970;-58
2022/04/09 04:07:23;;;;;;;;;;;3.80;99.90;;;;;;5093433;28;19981;-58
2022/04/09 04:09:50;;;;;;;;;;;3.60;99.90;;;;;;5091233;28;19932;-58
2022/04/09 04:12:17;;;;;;;;;;;3.50;99.90;;;;;;5093289;28;20418;-59
2022/04/09 04:14:45;;;;;;;;;;;3.30;99.90;;;;;;5089701;28;19924;-58
2022/04/09 04:17:12;;;;;;;;;;;3.00;99.90;;;;;;5090642;28;19932;-59
2022/04/09 04:19:39;;;;;;;;;;;2.80;99.90;;;;;;5089169;28;19931;-58
2022/04/09 04:22:07;;;;;;;;;;;2.60;99.90;;;;;;5094504;28;20374;-59
2022/04/09 04:24:37;;;;;;;;;;;2.60;99.90;;;;;;5093880;28;20464;-59
2022/04/09 04:27:04;;;;;;;;;;;2.50;99.90;;;;;;5090645;28;19974;-59
2022/04/09 04:29:31;;;;;;;;;;;2.40;99.90;;;;;;5088725;28;19938;-59
2022/04/09 04:31:59;;;;;;;;;;;2.40;99.90;;;;;;5092623;28;19931;-59
2022/04/09 04:34:26;;;;;;;;;;;2.30;99.90;;;;;;5085941;28;20344;-59
2022/04/09 04:36:53;;;;;;;;;;;2.30;99.90;;;;;;5092671;28;19970;-58
2022/04/09 04:39:20;;;;;;;;;;;2.30;99.90;;;;;;5094538;28;19924;-58
2022/04/09 04:41:47;;;;;;;;;;;2.30;99.90;;;;;;5093799;28;19924;-59
2022/04/09 04:44:13;;;;;;;;;;;2.30;99.90;;;;;;5093940;28;19928;-58
2022/04/09 04:46:41;;;;;;;;;;;2.40;99.90;;;;;;5093657;28;19925;-58
2022/04/09 04:49:10;;;;;;;;;;;2.30;99.90;;;;;;5092582;28;19925;-58
2022/04/09 04:51:37;;;;;;;;;;;2.30;99.90;;;;;;5093280;28;19944;-58
2022/04/09 04:54:05;;;;;;;;;;;2.40;99.90;;;;;;5092629;28;19924;-58
2022/04/09 04:56:32;;;;;;;;;;;2.50;99.90;;;;;;5093195;28;19924;-58
2022/04/09 04:58:59;;;;;;;;;;;2.40;99.90;;;;;;5076819;28;19928;-58
2022/04/09 05:01:29;;;;;;;;;;;2.40;99.90;;;;;;5091963;28;19964;-58
2022/04/09 05:03:56;;;;;;;;;;;2.60;99.90;;;;;;5093207;28;20015;-58
2022/04/09 05:06:24;;;;;;;;;;;2.80;99.90;;;;;;5091949;28;19930;-57
2022/04/09 05:08:51;;;;;;;;;;;2.70;99.90;;;;;;5092997;28;19924;-57
2022/04/09 05:11:21;;;;;;;;;;;2.80;99.90;;;;;;5093306;28;19936;-57
2022/04/09 05:13:48;;;;;;;;;;;3.00;99.90;;;;;;5091680;28;19928;-57
2022/04/09 05:16:18;;;;;;;;;;;2.90;99.90;;;;;;5091957;28;19963;-57
2022/04/09 05:18:45;;;;;;;;;;;2.90;99.90;;;;;;5083080;28;19948;-57
2022/04/09 05:21:15;;;;;;;;;;;3.00;99.90;;;;;;5090090;28;19931;-57
2022/04/09 05:23:44;;;;;;;;;;;3.10;99.90;;;;;;5092585;28;19981;-57
2022/04/09 05:26:11;;;;;;;;;;;3.00;99.90;;;;;;5083829;28;20670;-57
2022/04/09 05:28:41;;;;;;;;;;;3.10;99.90;;;;;;5092635;28;20024;-58
2022/04/09 05:31:09;;;;;;;;;;;3.00;99.90;;;;;;5087346;28;19924;-58
2022/04/09 05:33:35;;;;;;;;;;;3.10;99.90;;;;;;5092983;28;19931;-58
2022/04/09 05:36:02;;;;;;;;;;;3.20;99.90;;;;;;5095520;28;19924;-58
2022/04/09 05:38:32;;;;;;;;;;;3.10;99.90;;;;;;5094333;28;19931;-58
2022/04/09 05:41:01;;;;;;;;;;;3.10;99.90;;;;;;5094087;28;19970;-59
2022/04/09 05:43:29;;;;;;;;;;;3.10;99.90;;;;;;5094211;28;19975;-58
2022/04/09 05:45:57;;;;;;;;;;;3.10;99.90;;;;;;5091740;28;19924;-58
2022/04/09 05:48:24;;;;;;;;;;;3.00;99.90;;;;;;5094989;28;20368;-58
2022/04/09 05:50:51;;;;;;;;;;;3.20;99.90;;;;;;5094303;28;19931;-58
2022/04/09 05:53:18;;;;;;;;;;;3.30;99.90;;;;;;5092660;28;19928;-57
2022/04/09 05:55:44;;;;;;;;;;;3.10;99.90;;;;;;5092669;28;19924;-58
2022/04/09 05:58:13;;;;;;;;;;;3.00;99.90;;;;;;5092183;28;20015;-57
2022/04/09 06:00:39;;;;;;;;;;;3.00;99.90;;;;;;5092760;28;19924;-57
2022/04/09 06:03:07;;;;;;;;;;;3.00;99.90;;;;;;5086991;28;20351;-57
2022/04/09 06:05:34;;;;;;;;;;;2.90;99.90;;;;;;5086192;28;19932;-57
2022/04/09 06:08:01;;;;;;;;;;;2.70;99.90;;;;;;5092463;28;19924;-57
2022/04/09 06:10:28;;;;;;;;;;;2.80;99.90;;;;;;5091564;28;19932;-57
2022/04/09 06:12:55;;;;;;;;;;;2.90;99.90;;;;;;5091128;28;19924;-57
2022/04/09 06:15:23;;;;;;;;;;;3.00;99.90;;;;;;5087783;28;20003;-57
2022/04/09 06:17:50;;;;;;;;;;;3.00;99.90;;;;;;5083469;28;19924;-58
2022/04/09 06:20:18;;;;;;;;;;;2.90;99.90;;;;;;5090360;28;20007;-57
2022/04/09 06:22:45;;;;;;;;;;;2.80;99.90;;;;;;5087899;28;19924;-57
2022/04/09 06:25:12;;;;;;;;;;;2.80;99.90;;;;;;5089413;28;20297;-57
2022/04/09 06:27:40;;;;;;;;;;;2.90;99.90;;;;;;5095493;28;19928;-57
2022/04/09 06:30:08;;;;;;;;;;;3.00;99.90;;;;;;5097148;28;19931;-57
2022/04/09 06:32:36;;;;;;;;;;;3.00;99.90;;;;;;5097179;28;19928;-57
2022/04/09 06:35:06;;;;;;;;;;;3.20;99.90;;;;;;5096676;28;19943;-57
2022/04/09 06:37:40;;;;;;;;;;;3.30;99.90;;;;;;5100635;28;19931;-57
2022/04/09 06:40:09;;;;;;;;;;;3.40;99.90;;;;;;5097123;28;19924;-58
2022/04/09 06:42:39;;;;;;;;;;;3.30;99.90;;;;;;5096400;28;19935;-57
2022/04/09 06:45:08;;;;;;;;;;;3.40;99.90;;;;;;5097441;28;19924;-57
2022/04/09 06:47:38;;;;;;;;;;;3.30;99.90;;;;;;5095748;28;19939;-57
2022/04/09 06:50:08;;;;;;;;;;;3.30;99.90;;;;;;5090631;28;20378;-57
2022/04/09 06:52:35;;;;;;;;;;;3.30;99.90;;;;;;5085846;28;19928;-57
2022/04/09 06:55:03;;;;;;;;;;;3.30;99.90;;;;;;5093615;28;20010;-57
2022/04/09 06:57:30;;;;;;;;;;;3.20;99.90;;;;;;5093312;28;19928;-57
2022/04/09 06:59:57;;;;;;;;;;;3.30;99.90;;;;;;5083189;28;19925;-57
2022/04/09 07:02:24;;;;;;;;;;;3.30;99.90;;;;;;5096254;28;20369;-57
2022/04/09 07:04:53;;;;;;;;;;;3.20;99.90;;;;;;5096514;28;19927;-57
2022/04/09 07:07:21;;;;;;;;;;;3.30;99.90;;;;;;5094643;28;20018;-57
2022/04/09 07:09:47;;;;;;;;;;;3.30;99.90;;;;;;5095076;28;20289;-57
2022/04/09 07:12:14;;;;;;;;;;;3.10;99.90;;;;;;5091457;28;19928;-57
2022/04/09 07:14:41;;;;;;;;;;;3.10;99.90;;;;;;5092496;28;20378;-57
2022/04/09 07:17:08;;;;;;;;;;;3.10;99.90;;;;;;5094776;28;20381;-57
2022/04/09 07:19:34;;;;;;;;;;;3.20;99.90;;;;;;5094086;28;19928;-57
2022/04/09 07:22:03;;;;;;;;;;;3.30;99.90;;;;;;5093796;28;19924;-56
2022/04/09 07:24:32;;;;;;;;;;;3.50;99.90;;;;;;5093136;28;19928;-57
2022/04/09 07:26:59;;;;;;;;;;;3.60;99.90;;;;;;5092054;28;19978;-57
2022/04/09 07:29:26;;;;;;;;;;;3.80;99.90;;;;;;5094868;28;19989;-57
2022/04/09 07:31:53;;;;;;;;;;;3.70;99.90;;;;;;5087346;28;19977;-57
2022/04/09 07:34:19;;;;;;;;;;;3.60;99.90;;;;;;5080854;28;19933;-57
2022/04/09 07:36:46;;;;;;;;;;;3.50;99.90;;;;;;5087145;28;19924;-57
2022/04/09 07:39:14;;;;;;;;;;;3.50;99.90;;;;;;5095071;28;20397;-57
2022/04/09 07:41:41;;;;;;;;;;;3.60;99.90;;;;;;5093008;28;19932;-57
2022/04/09 07:44:08;;;;;;;;;;;3.70;99.90;;;;;;5094512;28;20007;-57
2022/04/09 07:46:35;;;;;;;;;;;3.80;99.90;;;;;;5096548;28;20396;-57
2022/04/09 07:49:02;;;;;;;;;;;3.70;99.90;;;;;;5097686;28;19967;-57
2022/04/09 07:51:29;;;;;;;;;;;3.40;99.90;;;;;;5097296;28;20389;-57
2022/04/09 07:53:55;;;;;;;;;;;3.60;99.90;;;;;;5095964;28;19924;-57
2022/04/09 07:56:23;;;;;;;;;;;3.90;99.90;;;;;;5092754;28;19924;-57
2022/04/09 07:58:50;;;;;;;;;;;4.40;99.90;;;;;;5095143;28;19928;-57
2022/04/09 08:01:17;;;;;;;;;;;4.30;99.90;;;;;;5095096;28;19977;-57
2022/04/09 08:03:44;;;;;;;;;;;4.50;99.90;;;;;;5094771;28;19931;-57
2022/04/09 08:06:11;;;;;;;;;;;4.50;99.90;;;;;;5094499;28;19947;-57
2022/04/09 08:08:37;;;;;;;;;;;4.60;99.90;;;;;;5086784;28;19924;-56
2022/04/09 08:11:05;;;;;;;;;;;4.40;99.90;;;;;;5091156;28;19928;-57
2022/04/09 08:13:35;;;;;;;;;;;4.50;99.90;;;;;;5086589;28;19924;-58
2022/04/09 08:16:02;;;;;;;;;;;4.90;99.90;;;;;;5074468;28;19970;-58
2022/04/09 08:18:29;;;;;;;;;;;5.20;99.90;;;;;;5087189;28;19924;-58
2022/04/09 08:20:56;;;;;;;;;;;5.30;99.90;;;;;;5094128;28;19924;-58
2022/04/09 08:23:23;;;;;;;;;;;5.70;99.90;;;;;;5092436;28;19928;-58
2022/04/09 08:25:49;;;;;;;;;;;5.70;99.90;;;;;;5076614;28;20014;-58
2022/04/09 08:28:17;;;;;;;;;;;5.90;99.90;;;;;;5073860;28;19953;-58
2022/04/09 08:30:45;;;;;;;;;;;5.90;99.90;;;;;;5087803;28;19932;-58
2022/04/09 08:33:15;;;;;;;;;;;5.60;99.90;;;;;;5093223;28;19931;-58
2022/04/09 08:35:43;;;;;;;;;;;5.20;99.90;;;;;;5092633;28;20451;-58
2022/04/09 08:38:10;;;;;;;;;;;5.00;99.90;;;;;;5089583;28;20019;-58
2022/04/09 08:40:37;;;;;;;;;;;4.90;99.90;;;;;;5094627;28;19931;-58
2022/04/09 08:43:04;;;;;;;;;;;4.90;99.90;;;;;;5093965;28;19924;-59
2022/04/09 08:45:34;;;;;;;;;;;4.90;99.90;;;;;;5094225;28;19935;-58
2022/04/09 08:48:03;;;;;;;;;;;5.30;99.90;;;;;;5093816;28;20033;-58
2022/04/09 08:50:30;;;;;;;;;;;5.60;99.90;;;;;;5092073;28;20031;-58
2022/04/09 08:52:57;;;;;;;;;;;5.90;99.90;;;;;;5093505;28;19977;-58
2022/04/09 08:55:24;;;;;;;;;;;5.70;99.90;;;;;;5094229;28;19924;-58
2022/04/09 08:57:51;;;;;;;;;;;6.00;99.90;;;;;;5094102;28;19977;-58
2022/04/09 09:00:18;;;;;;;;;;;6.20;99.90;;;;;;5094261;28;19931;-58
2022/04/09 09:02:51;;;;;;;;;;;6.10;99.90;;;;;;5093449;28;20014;-58
2022/04/09 09:05:33;;;;;;;;;;;6.20;99.90;;;;;;5093665;28;19928;-59
2022/04/09 09:08:00;;;;;;;;;;;6.40;99.90;;;;;;5091509;28;19924;-58
2022/04/09 09:10:26;;;;;;;;;;;6.90;99.90;;;;;;5093530;28;19977;-58
2022/04/09 09:13:01;;;;;;;;;;;7.70;99.90;;;;;;5093745;28;20352;-58
2022/04/09 09:15:28;;;;;;;;;;;7.80;99.90;;;;;;5093443;28;19924;-58
2022/04/09 09:17:56;;;;;;;;;;;8.40;99.90;;;;;;5093975;28;19958;-59
2022/04/09 09:20:23;;;;;;;;;;;8.80;99.90;;;;;;5093831;28;19928;-59
2022/04/09 09:22:51;;;;;;;;;;;8.80;99.90;;;;;;5093699;28;19924;-59
2022/04/09 09:25:18;;;;;;;;;;;8.80;99.90;;;;;;5093127;28;19924;-58
2022/04/09 09:27:45;;;;;;;;;;;9.00;99.90;;;;;;5093193;28;19925;-59
2022/04/09 09:30:14;;;;;;;;;;;9.50;99.90;;;;;;5092794;28;19924;-58
2022/04/09 09:32:42;;;;;;;;;;;10.30;99.90;;;;;;5092460;28;19924;-57
2022/04/09 09:35:12;;;;;;;;;;;10.50;99.90;;;;;;5092149;28;19931;-59
2022/04/09 09:37:38;;;;;;;;;;;10.40;99.90;;;;;;5091849;28;19969;-59
2022/04/09 09:40:07;;;;;;;;;;;10.60;99.90;;;;;;5091573;28;19973;-57
2022/04/09 09:42:35;;;;;;;;;;;10.80;99.90;;;;;;5091277;28;19928;-56
2022/04/09 09:45:02;;;;;;;;;;;10.90;99.90;;;;;;5091806;28;19928;-56
2022/04/09 09:47:29;;;;;;;;;;;10.70;99.90;;;;;;5091636;28;19924;-57
2022/04/09 09:49:57;;;;;;;;;;;10.60;99.90;;;;;;5091120;28;19978;-57
2022/04/09 09:52:24;;;;;;;;;;;10.70;99.90;;;;;;5091592;28;20011;-58
2022/04/09 09:54:55;;;;;;;;;;;10.40;99.90;;;;;;5090987;28;19977;-57
2022/04/09 09:57:24;;;;;;;;;;;9.80;99.90;;;;;;5091991;28;20019;-57
2022/04/09 09:59:51;;;;;;;;;;;9.50;99.90;;;;;;5091768;28;19928;-57
2022/04/09 10:02:20;;;;;;;;;;;9.30;99.90;;;;;;5091232;28;20483;-56
2022/04/09 10:04:47;;;;;;;;;;;9.10;99.90;;;;;;5091618;28;19970;-58
2022/04/09 10:07:14;;;;;;;;;;;9.00;99.90;;;;;;5090500;28;20424;-56
2022/04/09 10:09:41;;;;;;;;;;;8.90;99.90;;;;;;5090223;28;20335;-56
2022/04/09 10:12:11;;;;;;;;;;;9.00;99.90;;;;;;5088973;28;19924;-57
2022/04/09 10:14:40;;;;;;;;;;;9.00;99.90;;;;;;5084295;28;19924;-56
2022/04/09 10:17:07;;;;;;;;;;;8.90;99.90;;;;;;5083451;28;19999;-55
2022/04/09 10:19:35;;;;;;;;;;;8.70;99.90;;;;;;5091141;28;19923;-56
2022/04/09 10:22:02;;;;;;;;;;;8.20;99.90;;;;;;5091109;28;19924;-57
2022/04/09 10:24:29;;;;;;;;;;;7.70;99.90;;;;;;5092478;28;19928;-57
2022/04/09 10:26:58;;;;;;;;;;;6.90;99.90;;;;;;5092057;28;19924;-57
2022/04/09 10:29:25;;;;;;;;;;;6.50;99.90;;;;;;5092712;28;19946;-57
2022/04/09 10:31:53;;;;;;;;;;;5.80;99.90;;;;;;5092813;28;19924;-57
2022/04/09 10:34:20;;;;;;;;;;;5.20;99.90;;;;;;5092909;28;19946;-57
2022/04/09 10:37:04;;;;;;;;;;;5.10;99.90;;;;;;5092281;28;19932;-57
2022/04/09 10:39:42;;;;;;;;;;;5.60;99.90;;;;;;5091724;28;20394;-57
2022/04/09 10:42:09;;;;;;;;;;;6.20;99.90;;;;;;5089889;28;19992;-57
2022/04/09 10:44:37;;;;;;;;;;;7.10;99.90;;;;;;5089667;28;20367;-57
2022/04/09 10:47:05;;;;;;;;;;;7.80;99.90;;;;;;5072633;28;19928;-56
2022/04/09 10:49:32;;;;;;;;;;;8.60;99.90;;;;;;5073973;28;19936;-56
2022/04/09 10:52:04;;;;;;;;;;;9.50;99.90;;;;;;5091261;28;19931;-58
2022/04/09 10:54:31;;;;;;;;;;;10.30;99.90;;;;;;5089954;28;19924;-56
2022/04/09 10:57:06;;;;;;;;;;;11.10;99.90;;;;;;5083591;28;20015;-56
2022/04/09 10:59:33;;;;;;;;;;;11.50;99.90;;;;;;5073810;28;19928;-56
2022/04/09 11:02:00;;;;;;;;;;;12.20;99.90;;;;;;5090652;28;20310;-57
2022/04/09 11:04:47;;;;;;;;;;;12.70;99.90;;;;;;5090607;28;19928;-56
2022/04/09 11:07:15;;;;;;;;;;;11.60;99.90;;;;;;5082691;28;19928;-56
2022/04/09 11:09:47;;;;;;;;;;;10.00;99.90;;;;;;5092636;28;20002;-56
2022/04/09 11:12:14;;;;;;;;;;;9.00;99.90;;;;;;5092687;28;19961;-56
2022/04/09 11:14:45;;;;;;;;;;;8.20;99.90;;;;;;5094600;28;20075;-56
2022/04/09 11:17:15;;;;;;;;;;;7.50;99.90;;;;;;5094757;28;19924;-56
2022/04/09 11:19:43;;;;;;;;;;;7.20;99.90;;;;;;5095578;28;19931;-56
2022/04/09 11:22:11;;;;;;;;;;;6.90;99.90;;;;;;5087665;28;19931;-56
2022/04/09 11:24:39;;;;;;;;;;;6.90;99.90;;;;;;5095648;28;19946;-57
2022/04/09 11:27:06;;;;;;;;;;;7.40;99.90;;;;;;5092111;28;19928;-57
2022/04/09 11:29:33;;;;;;;;;;;7.50;99.90;;;;;;5095430;28;19930;-56
2022/04/09 11:32:00;;;;;;;;;;;7.70;99.90;;;;;;5090677;28;19924;-56
2022/04/09 11:34:27;;;;;;;;;;;8.10;99.90;;;;;;5090722;28;19924;-57
2022/04/09 11:37:09;;;;;;;;;;;8.60;99.90;;;;;;5093613;28;20339;-57
2022/04/09 11:39:40;;;;;;;;;;;9.40;99.90;;;;;;5090528;28;19924;-57
2022/04/09 11:42:07;;;;;;;;;;;10.00;99.90;;;;;;5088027;28;20084;-57
2022/04/09 11:44:35;;;;;;;;;;;10.80;99.90;;;;;;5093231;28;19928;-57
2022/04/09 11:47:08;;;;;;;;;;;10.80;99.90;;;;;;5092140;28;19924;-57
2022/04/09 11:49:35;;;;;;;;;;;11.00;99.90;;;;;;5093230;28;19928;-57
2022/04/09 11:52:05;;;;;;;;;;;10.70;99.90;;;;;;5088196;28;19950;-57
2022/04/09 11:54:33;;;;;;;;;;;10.70;99.90;;;;;;5089301;28;19924;-57
2022/04/09 11:57:08;;;;;;;;;;;10.50;99.90;;;;;;5089995;28;19930;-58
2022/04/09 11:59:35;;;;;;;;;;;10.30;99.90;;;;;;5097565;28;19934;-58
2022/04/09 12:02:02;;;;;;;;;;;10.10;99.90;;;;;;5095177;28;19939;-57
2022/04/09 12:04:34;;;;;;;;;;;9.20;99.90;;;;;;5103793;28;19981;-57
2022/04/09 12:07:02;;;;;;;;;;;9.40;99.90;;;;;;5098750;28;19924;-57
2022/04/09 12:09:29;;;;;;;;;;;9.10;99.90;;;;;;5103485;28;19935;-57
2022/04/09 12:11:56;;;;;;;;;;;9.00;99.90;;;;;;5108055;28;19978;-57
2022/04/09 12:14:25;;;;;;;;;;;8.90;99.90;;;;;;5088303;28;19924;-57
2022/04/09 12:16:51;;;;;;;;;;;9.10;99.90;;;;;;5101935;28;19924;-57
2022/04/09 12:19:28;;;;;;;;;;;9.30;99.90;;;;;;5099638;28;19975;-58
2022/04/09 12:21:55;;;;;;;;;;;9.40;99.90;;;;;;5103042;28;20301;-57
2022/04/09 12:24:21;;;;;;;;;;;9.40;99.90;;;;;;5092351;28;19928;-56
2022/04/09 12:26:55;;;;;;;;;;;9.70;99.90;;;;;;5091252;28;19932;-57
2022/04/09 12:29:23;;;;;;;;;;;9.90;99.90;;;;;;5091080;28;20310;-59
2022/04/09 12:31:52;;;;;;;;;;;10.00;99.90;;;;;;5086138;28;19931;-58
2022/04/09 12:34:19;;;;;;;;;;;10.00;99.90;;;;;;5085109;28;19970;-58
2022/04/09 12:37:05;;;;;;;;;;;10.00;99.90;;;;;;5089226;28;19924;-58
2022/04/09 12:39:33;;;;;;;;;;;10.00;99.90;;;;;;5083175;28;20394;-58
2022/04/09 12:42:00;;;;;;;;;;;10.30;99.90;;;;;;5092725;28;19930;-57
2022/04/09 12:44:28;;;;;;;;;;;10.00;99.90;;;;;;5092825;28;19924;-58
2022/04/09 12:46:57;;;;;;;;;;;9.80;99.90;;;;;;5091673;28;19928;-58
2022/04/09 12:49:27;;;;;;;;;;;9.50;99.90;;;;;;5092178;28;20011;-58
2022/04/09 12:51:58;;;;;;;;;;;9.60;99.90;;;;;;5083278;28;19951;-57
2022/04/09 12:54:26;;;;;;;;;;;9.60;99.90;;;;;;5091361;28;19936;-58
2022/04/09 12:56:53;;;;;;;;;;;9.50;99.90;;;;;;5088108;28;19924;-58
2022/04/09 12:59:19;;;;;;;;;;;9.70;99.90;;;;;;5090989;28;19955;-57
2022/04/09 13:01:47;;;;;;;;;;;9.90;99.90;;;;;;5088380;28;19924;-58
2022/04/09 13:04:15;;;;;;;;;;;10.00;99.90;;;;;;5086748;28;19968;-58
2022/04/09 13:06:42;;;;;;;;;;;10.10;99.90;;;;;;5091185;28;19928;-57
2022/04/09 13:09:12;;;;;;;;;;;10.30;99.90;;;;;;5091209;28;20046;-58
2022/04/09 13:11:38;;;;;;;;;;;10.10;99.90;;;;;;5090471;28;19932;-58
2022/04/09 13:14:05;;;;;;;;;;;9.70;99.90;;;;;;5084158;28;19929;-58
2022/04/09 13:16:32;;;;;;;;;;;9.60;99.90;;;;;;5091198;28;19972;-58
2022/04/09 13:18:59;;;;;;;;;;;9.70;99.90;;;;;;5086702;28;19928;-58
2022/04/09 13:21:27;;;;;;;;;;;10.20;99.90;;;;;;5089737;28;19924;-58
2022/04/09 13:23:54;;;;;;;;;;;10.50;99.90;;;;;;5088020;28;19928;-58
2022/04/09 13:26:21;;;;;;;;;;;10.90;99.90;;;;;;5090365;28;19928;-58
2022/04/09 13:28:47;;;;;;;;;;;10.90;99.90;;;;;;5090612;28;20021;-58
2022/04/09 13:31:14;;;;;;;;;;;10.70;99.90;;;;;;5092238;28;19946;-58
2022/04/09 13:33:41;;;;;;;;;;;10.40;99.90;;;;;;5083442;28;20444;-58
2022/04/09 13:36:08;;;;;;;;;;;9.80;99.90;;;;;;5087141;28;19939;-58
2022/04/09 13:38:36;;;;;;;;;;;9.60;99.90;;;;;;5092363;28;19932;-58
2022/04/09 13:41:03;;;;;;;;;;;9.50;99.90;;;;;;5087135;28;19924;-57
2022/04/09 13:43:30;;;;;;;;;;;9.40;99.90;;;;;;5089473;28;19931;-58
2022/04/09 13:45:57;;;;;;;;;;;8.60;99.90;;;;;;5089581;28;19986;-57
2022/04/09 13:48:24;;;;;;;;;;;8.20;99.90;;;;;;5088422;28;19924;-57
2022/04/09 13:50:52;;;;;;;;;;;8.00;99.90;;;;;;5086160;28;19953;-58
2022/04/09 13:53:19;;;;;;;;;;;8.60;99.90;;;;;;5085958;28;19972;-57
2022/04/09 13:55:47;;;;;;;;;;;9.40;99.90;;;;;;5093698;28;19939;-58
2022/04/09 13:58:14;;;;;;;;;;;9.70;99.90;;;;;;5090190;28;19924;-57
2022/04/09 14:00:41;;;;;;;;;;;9.90;99.90;;;;;;5083550;28;19971;-58
2022/04/09 14:03:08;;;;;;;;;;;10.50;99.90;;;;;;5086630;28;19924;-58
2022/04/09 14:05:35;;;;;;;;;;;10.70;99.90;;;;;;5086581;28;19935;-58
2022/04/09 14:08:01;;;;;;;;;;;10.50;99.90;;;;;;5089907;28;20297;-58
2022/04/09 14:10:28;;;;;;;;;;;10.70;99.90;;;;;;5091608;28;19931;-58
2022/04/09 14:12:58;;;;;;;;;;;10.50;99.90;;;;;;5091848;28;19924;-58
2022/04/09 14:15:25;;;;;;;;;;;10.60;99.90;;;;;;5091881;28;19928;-58
2022/04/09 14:17:52;;;;;;;;;;;10.40;99.90;;;;;;5089552;28;19924;-58
2022/04/09 14:20:19;;;;;;;;;;;10.60;99.90;;;;;;5091381;28;19928;-58
2022/04/09 14:22:45;;;;;;;;;;;10.50;99.90;;;;;;5084188;28;19989;-58
2022/04/09 14:25:12;;;;;;;;;;;10.50;99.90;;;;;;5091847;28;20447;-58
2022/04/09 14:27:39;;;;;;;;;;;10.70;99.90;;;;;;5090735;28;19924;-57
2022/04/09 14:30:08;;;;;;;;;;;10.70;99.90;;;;;;5089450;28;19928;-58
2022/04/09 14:32:35;;;;;;;;;;;10.30;99.90;;;;;;5085164;28;20410;-58